createdAt,value
2023-05-01T00:00:33.559Z,61.71
2023-05-01T00:01:55.357Z,57.92
2023-05-01T00:03:18.194Z,54.33
2023-05-01T00:04:40.056Z,53.48
2023-05-01T00:06:01.936Z,53.62
2023-05-01T00:07:23.313Z,54.65
2023-05-01T00:08:45.176Z,55.07
2023-05-01T00:10:07.197Z,56.09
2023-05-01T00:11:28.713Z,56.93
2023-05-01T00:12:53.168Z,57.78
2023-05-01T00:14:14.952Z,58.19
2023-05-01T00:15:36.585Z,58.70
2023-05-01T00:16:58.798Z,59.18
2023-05-01T00:18:20.496Z,59.29
2023-05-01T00:19:42.223Z,59.76
2023-05-01T00:21:04.167Z,60.59
2023-05-01T00:22:39.943Z,60.71
2023-05-01T00:24:13.448Z,61.18
2023-05-01T00:25:34.984Z,61.24
2023-05-01T00:26:56.651Z,61.11
2023-05-01T00:28:25.450Z,61.43
2023-05-01T00:29:47.409Z,61.73
2023-05-01T00:31:11.462Z,62.22
2023-05-01T00:32:47.667Z,61.97
2023-05-01T00:34:11.683Z,62.19
2023-05-01T00:35:35.668Z,63.04
2023-05-01T00:36:59.633Z,64.08
2023-05-01T00:38:21.443Z,61.78
2023-05-01T00:39:45.632Z,58.59
2023-05-01T00:41:09.345Z,54.74
2023-05-01T00:42:33.594Z,53.70
2023-05-01T00:43:55.582Z,54.16
2023-05-01T00:45:19.294Z,54.78
2023-05-01T00:46:42.655Z,55.64
2023-05-01T00:48:05.353Z,56.40
2023-05-01T00:49:27.083Z,57.27
2023-05-01T00:50:48.918Z,57.84
2023-05-01T00:52:10.709Z,58.34
2023-05-01T00:53:32.439Z,59.12
2023-05-01T00:54:54.041Z,59.53
2023-05-01T00:56:18.205Z,60.23
2023-05-01T00:57:51.844Z,60.86
2023-05-01T00:59:13.685Z,61.84
2023-05-01T01:00:35.438Z,61.99
2023-05-01T01:01:59.524Z,62.08
2023-05-01T01:03:21.400Z,62.50
2023-05-01T01:04:43.894Z,63.57
2023-05-01T01:06:05.704Z,63.02
2023-05-01T01:07:27.177Z,59.79
2023-05-01T01:08:49.118Z,55.91
2023-05-01T01:10:11.068Z,53.98
2023-05-01T01:11:32.619Z,54.16
2023-05-01T01:12:54.261Z,55.00
2023-05-01T01:14:17.048Z,55.82
2023-05-01T01:15:38.900Z,56.68
2023-05-01T01:17:01.096Z,57.71
2023-05-01T01:18:22.256Z,58.41
2023-05-01T01:19:44.341Z,59.09
2023-05-01T01:21:06.883Z,59.72
2023-05-01T01:22:28.816Z,60.17
2023-05-01T01:23:50.682Z,60.51
2023-05-01T01:25:12.678Z,61.05
2023-05-01T01:26:34.496Z,61.31
2023-05-01T01:27:56.765Z,62.10
2023-05-01T01:29:18.514Z,63.18
2023-05-01T01:30:40.762Z,63.42
2023-05-01T01:32:02.690Z,61.00
2023-05-01T01:33:24.318Z,57.48
2023-05-01T01:34:48.673Z,54.69
2023-05-01T01:36:10.688Z,54.22
2023-05-01T01:37:39.594Z,54.97
2023-05-01T01:39:01.444Z,56.12
2023-05-01T01:40:23.176Z,57.18
2023-05-01T01:41:45.336Z,58.26
2023-05-01T01:43:07.035Z,59.21
2023-05-01T01:44:32.575Z,59.62
2023-05-01T01:45:54.187Z,60.28
2023-05-01T01:47:15.885Z,61.05
2023-05-01T01:48:37.787Z,62.01
2023-05-01T01:49:59.718Z,62.87
2023-05-01T01:51:21.961Z,63.70
2023-05-01T01:52:43.963Z,61.82
2023-05-01T01:54:06.094Z,58.21
2023-05-01T01:55:32.929Z,54.89
2023-05-01T01:56:54.640Z,54.40
2023-05-01T01:58:16.895Z,54.96
2023-05-01T01:59:39.741Z,56.11
2023-05-01T02:01:01.706Z,57.29
2023-05-01T02:02:23.434Z,58.37
2023-05-01T02:03:45.735Z,59.20
2023-05-01T02:05:07.599Z,60.08
2023-05-01T02:06:34.303Z,60.88
2023-05-01T02:07:56.180Z,61.56
2023-05-01T02:09:17.958Z,61.99
2023-05-01T02:10:39.649Z,62.79
2023-05-01T02:12:01.700Z,64.08
2023-05-01T02:13:24.660Z,62.52
2023-05-01T02:14:51.310Z,59.31
2023-05-01T02:16:13.370Z,55.68
2023-05-01T02:17:35.167Z,54.72
2023-05-01T02:18:57.108Z,55.18
2023-05-01T02:20:21.288Z,56.36
2023-05-01T02:21:45.933Z,57.56
2023-05-01T02:23:07.909Z,58.36
2023-05-01T02:24:29.365Z,59.18
2023-05-01T02:25:53.563Z,59.97
2023-05-01T02:27:15.596Z,60.57
2023-05-01T02:28:37.397Z,61.26
2023-05-01T02:31:20.915Z,62.68
2023-05-01T02:32:44.197Z,64.05
2023-05-01T02:34:06.146Z,62.73
2023-05-01T02:35:30.189Z,59.57
2023-05-01T02:36:52.101Z,55.91
2023-05-01T02:38:15.048Z,54.42
2023-05-01T02:39:36.920Z,54.73
2023-05-01T02:40:59.047Z,55.66
2023-05-01T02:42:20.359Z,56.94
2023-05-01T02:43:42.292Z,57.92
2023-05-01T02:45:06.492Z,58.87
2023-05-01T02:46:28.193Z,59.81
2023-05-01T02:47:50.499Z,60.58
2023-05-01T02:49:12.207Z,61.17
2023-05-01T02:50:33.966Z,62.04
2023-05-01T02:51:55.924Z,62.88
2023-05-01T02:53:18.001Z,63.86
2023-05-01T02:54:44.811Z,61.95
2023-05-01T02:56:07.913Z,58.65
2023-05-01T02:57:29.478Z,55.37
2023-05-01T02:58:54.566Z,54.75
2023-05-01T03:00:16.752Z,55.39
2023-05-01T03:01:39.791Z,56.55
2023-05-01T03:03:01.627Z,57.68
2023-05-01T03:04:23.355Z,58.86
2023-05-01T03:05:45.657Z,59.68
2023-05-01T03:07:08.233Z,60.51
2023-05-01T03:08:33.042Z,61.24
2023-05-01T03:09:55.502Z,61.90
2023-05-01T03:11:17.844Z,62.90
2023-05-01T03:12:41.743Z,64.07
2023-05-01T03:14:03.757Z,62.35
2023-05-01T03:15:25.528Z,59.12
2023-05-01T03:16:51.813Z,55.56
2023-05-01T03:18:13.706Z,54.55
2023-05-01T03:19:42.660Z,55.32
2023-05-01T03:21:04.762Z,56.53
2023-05-01T03:22:26.529Z,57.69
2023-05-01T03:23:51.174Z,58.84
2023-05-01T03:25:15.849Z,59.73
2023-05-01T03:26:37.813Z,60.69
2023-05-01T03:27:59.833Z,61.70
2023-05-01T03:29:21.446Z,62.32
2023-05-01T03:30:43.330Z,63.62
2023-05-01T03:32:05.522Z,63.74
2023-05-01T03:33:31.756Z,61.15
2023-05-01T03:34:56.006Z,57.59
2023-05-01T03:36:24.848Z,54.66
2023-05-01T03:37:47.337Z,54.62
2023-05-01T03:39:14.862Z,55.61
2023-05-01T03:40:57.904Z,57.03
2023-05-01T03:42:38.278Z,58.36
2023-05-01T03:44:07.119Z,59.44
2023-05-01T03:45:44.726Z,60.59
2023-05-01T03:47:07.170Z,61.63
2023-05-01T03:48:32.667Z,62.14
2023-05-01T03:49:58.879Z,63.12
2023-05-01T03:51:20.900Z,63.95
2023-05-01T03:52:43.272Z,61.83
2023-05-01T03:54:05.328Z,58.57
2023-05-01T03:55:34.834Z,55.08
2023-05-01T03:56:58.723Z,54.61
2023-05-01T03:58:23.123Z,55.37
2023-05-01T03:59:45.351Z,56.64
2023-05-01T04:01:07.304Z,57.78
2023-05-01T04:02:29.766Z,58.70
2023-05-01T04:03:52.194Z,59.50
2023-05-01T04:05:14.559Z,60.39
2023-05-01T04:06:39.193Z,61.41
2023-05-01T04:08:01.240Z,61.91
2023-05-01T04:09:22.727Z,62.61
2023-05-01T04:10:44.886Z,63.83
2023-05-01T04:12:06.819Z,62.47
2023-05-01T04:13:28.567Z,59.51
2023-05-01T04:14:58.788Z,55.72
2023-05-01T04:16:20.584Z,54.88
2023-05-01T04:17:50.008Z,55.05
2023-05-01T04:19:14.385Z,56.02
2023-05-01T04:20:37.648Z,57.16
2023-05-01T04:22:01.864Z,58.21
2023-05-01T04:23:24.898Z,59.00
2023-05-01T04:24:47.355Z,59.79
2023-05-01T04:26:09.274Z,60.65
2023-05-01T04:27:30.827Z,61.32
2023-05-01T04:28:52.975Z,61.84
2023-05-01T04:30:17.143Z,62.37
2023-05-01T04:31:46.930Z,62.57
2023-05-01T04:33:11.757Z,63.79
2023-05-01T04:34:33.837Z,62.20
2023-05-01T04:35:58.800Z,58.72
2023-05-01T04:37:23.014Z,55.01
2023-05-01T04:38:45.139Z,54.01
2023-05-01T04:40:09.180Z,54.40
2023-05-01T04:41:34.978Z,55.45
2023-05-01T04:42:59.248Z,56.51
2023-05-01T04:44:20.735Z,57.03
2023-05-01T04:45:42.945Z,57.99
2023-05-01T04:47:06.245Z,58.73
2023-05-01T04:48:28.044Z,59.13
2023-05-01T04:49:49.542Z,59.74
2023-05-01T04:51:15.802Z,60.24
2023-05-01T04:52:37.662Z,60.82
2023-05-01T04:53:59.393Z,61.26
2023-05-01T04:55:23.716Z,61.45
2023-05-01T04:57:19.296Z,61.85
2023-05-01T04:58:44.380Z,62.30
2023-05-01T05:00:08.697Z,63.21
2023-05-01T05:01:49.971Z,62.70
2023-05-01T05:03:11.879Z,59.20
2023-05-01T05:04:33.854Z,55.44
2023-05-01T05:06:03.344Z,53.45
2023-05-01T05:07:24.838Z,53.99
2023-05-01T05:09:09.272Z,55.01
2023-05-01T05:10:31.029Z,55.80
2023-05-01T05:12:14.769Z,56.72
2023-05-01T05:13:36.637Z,57.43
2023-05-01T05:15:06.522Z,58.36
2023-05-01T05:16:35.731Z,58.84
2023-05-01T05:17:57.500Z,59.75
2023-05-01T05:19:38.196Z,59.59
2023-05-01T05:20:59.749Z,59.76
2023-05-01T05:22:25.949Z,60.03
2023-05-01T05:24:21.181Z,60.11
2023-05-01T05:25:43.265Z,60.45
2023-05-01T05:27:07.212Z,61.34
2023-05-01T05:28:28.996Z,61.26
2023-05-01T05:30:01.144Z,61.25
2023-05-01T05:31:30.649Z,61.28
2023-05-01T05:32:52.750Z,61.34
2023-05-01T05:34:15.268Z,61.79
2023-05-01T05:35:39.270Z,62.14
2023-05-01T05:37:03.277Z,62.09
2023-05-01T05:38:27.954Z,62.18
2023-05-01T05:39:51.769Z,61.93
2023-05-01T05:41:15.819Z,61.94
2023-05-01T05:42:37.725Z,62.05
2023-05-01T05:44:03.288Z,61.85
2023-05-01T05:45:25.971Z,61.98
2023-05-01T05:46:47.888Z,62.31
2023-05-01T05:48:19.940Z,62.82
2023-05-01T05:49:47.094Z,63.02
2023-05-01T05:51:11.400Z,60.93
2023-05-01T05:52:45.223Z,57.03
2023-05-01T05:54:07.710Z,54.10
2023-05-01T05:55:45.879Z,53.83
2023-05-01T05:57:07.560Z,54.05
2023-05-01T05:58:42.288Z,54.68
2023-05-01T06:00:10.067Z,55.14
2023-05-01T06:01:49.734Z,55.97
2023-05-01T06:03:19.471Z,56.18
2023-05-01T06:04:41.995Z,56.98
2023-05-01T06:06:03.971Z,56.95
2023-05-01T06:07:26.166Z,57.81
2023-05-01T06:08:48.241Z,57.87
2023-05-01T06:10:10.345Z,57.69
2023-05-01T06:11:31.839Z,57.42
2023-05-01T06:13:02.603Z,57.37
2023-05-01T06:14:45.930Z,57.91
2023-05-01T06:16:07.885Z,58.13
2023-05-01T06:17:29.127Z,58.57
2023-05-01T06:18:53.141Z,58.93
2023-05-01T06:20:24.294Z,58.92
2023-05-01T06:21:49.647Z,58.84
2023-05-01T06:23:13.574Z,58.67
2023-05-01T06:24:40.173Z,57.56
2023-05-01T06:26:03.324Z,57.71
2023-05-01T06:27:27.181Z,57.15
2023-05-01T06:29:03.513Z,56.65
2023-05-01T06:30:27.964Z,56.94
2023-05-01T06:31:55.597Z,57.36
2023-05-01T06:33:22.521Z,57.53
2023-05-01T06:34:54.021Z,57.06
2023-05-01T06:36:29.285Z,57.05
2023-05-01T06:37:55.922Z,56.32
2023-05-01T06:39:22.311Z,56.79
2023-05-01T06:40:58.805Z,56.37
2023-05-01T06:42:22.947Z,56.56
2023-05-01T06:43:45.069Z,56.70
2023-05-01T06:45:08.479Z,56.46
2023-05-01T06:46:41.794Z,56.11
2023-05-01T06:48:04.130Z,55.65
2023-05-01T06:49:27.697Z,55.31
2023-05-01T06:50:51.634Z,55.33
2023-05-01T06:52:13.867Z,54.84
2023-05-01T06:53:36.888Z,55.76
2023-05-01T06:55:19.609Z,54.94
2023-05-01T06:56:41.509Z,54.71
2023-05-01T06:58:12.640Z,53.87
2023-05-01T06:59:44.706Z,54.59
2023-05-01T07:01:06.498Z,55.00
2023-05-01T07:02:27.988Z,54.08
2023-05-01T07:03:50.083Z,53.64
2023-05-01T07:05:11.694Z,52.72
2023-05-01T07:06:41.003Z,51.77
2023-05-01T07:08:05.304Z,51.73
2023-05-01T07:09:28.902Z,51.78
2023-05-01T07:11:02.820Z,51.77
2023-05-01T07:12:24.416Z,51.16
2023-05-01T07:13:46.203Z,50.57
2023-05-01T07:15:10.038Z,51.51
2023-05-01T07:16:32.439Z,51.11
2023-05-01T07:18:05.992Z,50.73
2023-05-01T07:19:39.503Z,50.90
2023-05-01T07:21:12.941Z,50.83
2023-05-01T07:22:48.541Z,49.81
2023-05-01T07:24:10.344Z,49.70
2023-05-01T07:25:46.188Z,50.39
2023-05-01T07:27:36.486Z,49.44
2023-05-01T07:29:17.598Z,48.53
2023-05-01T07:31:03.551Z,50.03
2023-05-01T07:32:48.424Z,50.21
2023-05-01T07:34:21.901Z,49.60
2023-05-01T07:35:43.621Z,48.16
2023-05-01T07:37:28.832Z,48.74
2023-05-01T07:39:03.422Z,48.93
2023-05-01T07:40:52.225Z,48.84
2023-05-01T07:42:26.193Z,49.02
2023-05-01T07:43:59.885Z,47.66
2023-05-01T07:45:44.879Z,46.74
2023-05-01T07:47:08.975Z,44.79
2023-05-01T07:48:43.664Z,45.09
2023-05-01T07:50:28.815Z,44.64
2023-05-01T07:52:04.412Z,44.47
2023-05-01T07:53:35.138Z,44.22
2023-05-01T07:55:15.930Z,44.87
2023-05-01T07:56:37.855Z,44.32
2023-05-01T07:58:06.985Z,44.15
2023-05-01T07:59:28.768Z,43.13
2023-05-01T08:00:53.158Z,42.85
2023-05-01T08:02:14.983Z,42.81
2023-05-01T08:03:37.175Z,42.69
2023-05-01T08:05:14.513Z,42.44
2023-05-01T08:06:36.219Z,41.94
2023-05-01T08:07:58.338Z,42.50
2023-05-01T08:09:27.177Z,42.82
2023-05-01T08:10:49.323Z,42.45
2023-05-01T08:12:11.231Z,42.34
2023-05-01T08:13:35.250Z,42.07
2023-05-01T08:14:57.164Z,42.03
2023-05-01T08:16:21.907Z,42.21
2023-05-01T08:17:51.410Z,42.06
2023-05-01T08:19:13.042Z,42.60
2023-05-01T08:20:34.636Z,42.56
2023-05-01T08:23:55.032Z,42.76
2023-05-01T08:25:24.621Z,42.67
2023-05-01T08:26:46.772Z,43.25
2023-05-01T08:28:10.614Z,43.34
2023-05-01T08:29:34.710Z,42.47
2023-05-01T08:30:58.936Z,42.49
2023-05-01T08:32:25.210Z,41.64
2023-05-01T08:33:47.264Z,41.77
2023-05-01T08:35:09.759Z,41.33
2023-05-01T08:36:32.701Z,41.11
2023-05-01T08:37:54.646Z,41.07
2023-05-01T08:39:16.141Z,42.58
2023-05-01T08:40:40.941Z,43.88
2023-05-01T08:42:02.761Z,42.85
2023-05-01T08:43:27.337Z,41.44
2023-05-01T08:44:51.704Z,40.62
2023-05-01T08:46:16.174Z,40.30
2023-05-01T08:47:40.926Z,41.28
2023-05-01T08:49:05.796Z,39.86
2023-05-01T08:50:27.488Z,39.62
2023-05-01T08:51:50.100Z,40.84
2023-05-01T08:53:43.072Z,41.66
2023-05-01T08:55:07.894Z,42.46
2023-05-01T08:56:29.517Z,40.06
2023-05-01T08:57:51.391Z,39.86
2023-05-01T08:59:15.788Z,40.03
2023-05-01T09:00:49.535Z,41.90
2023-05-01T09:02:14.273Z,41.84
2023-05-01T09:03:37.869Z,40.10
2023-05-01T09:05:01.879Z,40.66
2023-05-01T09:06:47.312Z,39.94
2023-05-01T09:08:18.858Z,40.59
2023-05-01T09:09:42.971Z,42.26
2023-05-01T09:11:16.502Z,40.84
2023-05-01T09:12:41.061Z,40.82
2023-05-01T09:14:17.630Z,39.85
2023-05-01T09:15:46.663Z,37.70
2023-05-01T09:17:10.465Z,37.63
2023-05-01T09:18:32.298Z,38.89
2023-05-01T09:20:01.321Z,38.03
2023-05-01T09:21:25.607Z,37.73
2023-05-01T09:23:04.157Z,37.69
2023-05-01T09:24:35.495Z,37.94
2023-05-01T09:26:04.606Z,38.09
2023-05-01T09:27:28.380Z,38.54
2023-05-01T09:28:59.889Z,39.33
2023-05-01T09:30:28.657Z,39.31
2023-05-01T09:31:58.079Z,40.51
2023-05-01T09:33:24.515Z,38.84
2023-05-01T09:34:49.080Z,38.60
2023-05-01T09:36:11.010Z,39.99
2023-05-01T09:37:32.752Z,38.92
2023-05-01T09:38:54.219Z,39.47
2023-05-01T09:40:17.869Z,38.20
2023-05-01T09:41:41.905Z,39.92
2023-05-01T09:43:15.571Z,38.76
2023-05-01T09:44:48.967Z,42.32
2023-05-01T09:46:13.257Z,41.12
2023-05-01T09:47:37.053Z,41.71
2023-05-01T09:49:06.087Z,42.24
2023-05-01T09:50:30.083Z,41.31
2023-05-01T09:51:52.497Z,41.57
2023-05-01T09:53:21.430Z,41.76
2023-05-01T09:54:55.077Z,42.32
2023-05-01T09:56:18.034Z,42.38
2023-05-01T09:57:39.673Z,40.23
2023-05-01T09:59:12.717Z,41.96
2023-05-01T10:00:34.317Z,40.83
2023-05-01T10:02:05.903Z,41.37
2023-05-01T10:03:39.779Z,40.07
2023-05-01T10:05:13.858Z,39.19
2023-05-01T10:06:47.829Z,39.61
2023-05-01T10:08:14.758Z,38.98
2023-05-01T10:09:50.553Z,38.12
2023-05-01T10:11:20.156Z,38.22
2023-05-01T10:12:44.069Z,37.30
2023-05-01T10:14:18.480Z,38.62
2023-05-01T10:15:55.936Z,38.36
2023-05-01T10:17:22.690Z,38.40
2023-05-01T10:18:58.214Z,38.75
2023-05-01T10:20:22.436Z,38.05
2023-05-01T10:21:56.053Z,38.75
2023-05-01T10:23:17.568Z,36.36
2023-05-01T10:24:52.097Z,36.71
2023-05-01T10:26:29.101Z,37.95
2023-05-01T10:27:51.199Z,38.85
2023-05-01T10:29:13.422Z,38.68
2023-05-01T10:30:37.939Z,37.59
2023-05-01T10:32:11.856Z,38.06
2023-05-01T10:33:57.034Z,37.43
2023-05-01T10:35:42.088Z,35.62
2023-05-01T10:37:17.389Z,37.44
2023-05-01T10:38:48.607Z,36.59
2023-05-01T10:40:12.458Z,36.13
2023-05-01T10:41:45.962Z,37.32
2023-05-01T10:43:27.575Z,35.81
2023-05-01T10:44:57.497Z,35.17
2023-05-01T10:46:21.757Z,36.81
2023-05-01T10:47:59.406Z,35.89
2023-05-01T10:49:41.084Z,37.80
2023-05-01T10:51:27.784Z,35.84
2023-05-01T10:53:01.971Z,34.34
2023-05-01T10:54:26.643Z,33.94
2023-05-01T10:55:50.930Z,33.05
2023-05-01T10:57:15.237Z,33.84
2023-05-01T10:58:56.477Z,34.36
2023-05-01T11:00:41.058Z,34.29
2023-05-01T11:02:14.373Z,35.16
2023-05-01T11:03:57.091Z,34.35
2023-05-01T11:05:32.175Z,32.41
2023-05-01T11:07:04.194Z,33.99
2023-05-01T11:08:47.445Z,33.94
2023-05-01T11:10:23.176Z,32.64
2023-05-01T11:11:56.557Z,32.18
2023-05-01T11:13:31.911Z,31.62
2023-05-01T11:15:05.807Z,31.58
2023-05-01T11:16:38.953Z,32.11
2023-05-01T11:18:12.182Z,31.84
2023-05-01T11:19:41.357Z,29.95
2023-05-01T11:21:35.092Z,31.79
2023-05-01T11:23:10.308Z,32.52
2023-05-01T11:24:55.678Z,30.57
2023-05-01T11:26:31.214Z,31.45
2023-05-01T11:28:06.843Z,32.03
2023-05-01T11:29:36.011Z,32.50
2023-05-01T11:31:11.599Z,31.40
2023-05-01T11:32:47.731Z,30.97
2023-05-01T11:34:14.099Z,29.87
2023-05-01T11:35:38.017Z,28.57
2023-05-01T11:37:11.607Z,27.69
2023-05-01T11:38:46.988Z,29.19
2023-05-01T11:40:20.173Z,30.85
2023-05-01T11:42:05.355Z,29.88
2023-05-01T11:43:41.312Z,30.87
2023-05-01T11:45:26.248Z,31.08
2023-05-01T11:47:01.179Z,30.37
2023-05-01T11:48:22.979Z,30.66
2023-05-01T11:49:57.627Z,30.69
2023-05-01T11:51:37.820Z,29.75
2023-05-01T11:53:23.450Z,28.58
2023-05-01T11:55:08.537Z,28.63
2023-05-01T11:56:45.556Z,29.12
2023-05-01T11:58:14.797Z,28.91
2023-05-01T11:59:48.278Z,29.20
2023-05-01T12:01:21.516Z,29.58
2023-05-01T12:02:55.681Z,29.13
2023-05-01T12:04:32.285Z,28.65
2023-05-01T12:06:18.653Z,27.62
2023-05-01T12:07:59.808Z,28.14
2023-05-01T12:09:21.433Z,28.76
2023-05-01T12:10:57.322Z,27.15
2023-05-01T12:12:19.101Z,26.39
2023-05-01T12:13:58.660Z,26.59
2023-05-01T12:15:32.239Z,27.60
2023-05-01T12:17:17.426Z,26.82
2023-05-01T12:19:02.673Z,26.99
2023-05-01T12:20:36.624Z,27.32
2023-05-01T12:22:17.131Z,27.02
2023-05-01T12:23:58.248Z,26.67
2023-05-01T12:25:33.963Z,25.36
2023-05-01T12:26:55.806Z,26.88
2023-05-01T12:28:20.356Z,26.72
2023-05-01T12:29:54.506Z,26.61
2023-05-01T12:31:16.519Z,27.45
2023-05-01T12:32:57.170Z,26.10
2023-05-01T12:34:21.188Z,26.57
2023-05-01T12:35:50.440Z,24.95
2023-05-01T12:37:14.837Z,23.46
2023-05-01T12:39:00.314Z,24.10
2023-05-01T12:40:36.284Z,24.62
2023-05-01T12:42:00.818Z,24.87
2023-05-01T12:43:25.216Z,24.53
2023-05-01T12:45:00.578Z,23.12
2023-05-01T12:46:31.978Z,24.56
2023-05-01T12:47:56.014Z,25.22
2023-05-01T12:49:20.297Z,23.64
2023-05-01T12:50:53.878Z,23.30
2023-05-01T12:52:28.145Z,23.69
2023-05-01T12:53:57.157Z,23.93
2023-05-01T12:55:30.646Z,25.30
2023-05-01T12:56:58.257Z,23.97
2023-05-01T12:58:22.456Z,24.57
2023-05-01T12:59:54.498Z,25.16
2023-05-01T13:01:18.565Z,24.58
2023-05-01T13:02:55.168Z,23.85
2023-05-01T13:04:28.962Z,23.81
2023-05-01T13:05:58.456Z,24.28
2023-05-01T13:07:22.495Z,23.80
2023-05-01T13:08:44.522Z,23.51
2023-05-01T13:10:35.161Z,24.07
2023-05-01T13:12:05.652Z,23.78
2023-05-01T13:13:35.154Z,23.67
2023-05-01T13:15:04.297Z,22.50
2023-05-01T13:16:49.834Z,22.53
2023-05-01T13:18:11.559Z,22.90
2023-05-01T13:19:40.711Z,22.82
2023-05-01T13:21:27.316Z,24.06
2023-05-01T13:23:02.648Z,22.58
2023-05-01T13:24:36.169Z,22.28
2023-05-01T13:26:30.251Z,22.25
2023-05-01T13:27:52.411Z,22.17
2023-05-01T13:29:23.551Z,21.86
2023-05-01T13:30:57.149Z,21.82
2023-05-01T13:32:21.387Z,21.26
2023-05-01T13:33:54.903Z,22.04
2023-05-01T13:35:39.722Z,23.04
2023-05-01T13:37:11.604Z,22.15
2023-05-01T13:38:37.861Z,21.47
2023-05-01T13:40:11.370Z,20.85
2023-05-01T13:41:40.664Z,21.12
2023-05-01T13:43:17.137Z,21.31
2023-05-01T13:44:58.084Z,21.77
2023-05-01T13:46:22.259Z,22.13
2023-05-01T13:48:06.024Z,21.41
2023-05-01T13:49:39.443Z,22.41
2023-05-01T13:51:20.579Z,21.84
2023-05-01T13:52:43.488Z,21.50
2023-05-01T13:54:16.903Z,21.75
2023-05-01T13:55:50.619Z,21.16
2023-05-01T13:57:15.621Z,20.88
2023-05-01T13:58:39.337Z,20.04
2023-05-01T14:00:05.792Z,20.58
2023-05-01T14:01:46.163Z,21.33
2023-05-01T14:03:10.499Z,20.94
2023-05-01T14:04:34.753Z,20.96
2023-05-01T14:06:06.419Z,20.78
2023-05-01T14:07:53.123Z,20.79
2023-05-01T14:09:17.282Z,20.96
2023-05-01T14:11:00.140Z,20.92
2023-05-01T14:12:31.500Z,20.91
2023-05-01T14:14:05.181Z,20.37
2023-05-01T14:15:55.322Z,20.64
2023-05-01T14:17:28.895Z,20.70
2023-05-01T14:19:09.538Z,19.99
2023-05-01T14:20:43.250Z,20.80
2023-05-01T14:22:28.173Z,19.93
2023-05-01T14:24:01.747Z,19.73
2023-05-01T14:25:35.299Z,18.86
2023-05-01T14:27:01.778Z,18.96
2023-05-01T14:28:31.376Z,19.10
2023-05-01T14:30:04.918Z,19.59
2023-05-01T14:31:27.559Z,19.60
2023-05-01T14:32:54.297Z,19.58
2023-05-01T14:34:16.037Z,19.42
2023-05-01T14:35:38.021Z,19.36
2023-05-01T14:36:59.831Z,18.82
2023-05-01T14:38:21.633Z,18.96
2023-05-01T14:39:43.310Z,19.37
2023-05-01T14:41:04.785Z,19.49
2023-05-01T14:42:26.766Z,19.95
2023-05-01T14:43:51.106Z,19.92
2023-05-01T14:45:13.163Z,19.60
2023-05-01T14:46:47.265Z,19.26
2023-05-01T14:48:20.739Z,19.29
2023-05-01T14:49:56.909Z,19.61
2023-05-01T14:51:32.795Z,18.57
2023-05-01T14:53:02.056Z,18.64
2023-05-01T14:54:46.877Z,18.79
2023-05-01T14:56:08.243Z,19.10
2023-05-01T14:57:37.431Z,18.10
2023-05-01T14:59:22.749Z,17.90
2023-05-01T15:00:49.405Z,17.68
2023-05-01T15:02:23.632Z,18.13
2023-05-01T15:04:09.188Z,18.40
2023-05-01T15:05:54.258Z,18.03
2023-05-01T15:07:16.613Z,18.10
2023-05-01T15:08:45.690Z,18.70
2023-05-01T15:10:16.877Z,18.46
2023-05-01T15:11:50.560Z,18.77
2023-05-01T15:13:24.212Z,19.02
2023-05-01T15:14:58.009Z,19.17
2023-05-01T15:16:38.881Z,18.37
2023-05-01T15:18:10.089Z,18.46
2023-05-01T15:19:31.800Z,17.60
2023-05-01T15:21:05.537Z,17.88
2023-05-01T15:22:27.105Z,18.00
2023-05-01T15:23:51.310Z,18.57
2023-05-01T15:25:24.960Z,18.82
2023-05-01T15:26:58.443Z,18.18
2023-05-01T15:28:24.669Z,18.33
2023-05-01T15:30:10.424Z,18.94
2023-05-01T15:32:11.275Z,19.08
2023-05-01T15:33:40.894Z,19.11
2023-05-01T15:35:10.448Z,18.96
2023-05-01T15:36:54.617Z,18.75
2023-05-01T15:38:18.349Z,18.94
2023-05-01T15:39:42.157Z,18.50
2023-05-01T15:41:17.561Z,18.51
2023-05-01T15:42:54.497Z,18.67
2023-05-01T15:44:18.888Z,19.04
2023-05-01T15:46:05.759Z,19.39
2023-05-01T15:47:41.667Z,19.12
2023-05-01T15:49:03.737Z,18.97
2023-05-01T15:50:32.532Z,18.95
2023-05-01T15:52:01.415Z,19.04
2023-05-01T15:53:25.565Z,19.29
2023-05-01T15:54:59.070Z,19.71
2023-05-01T15:56:23.167Z,19.58
2023-05-01T15:57:57.164Z,19.45
2023-05-01T15:59:32.266Z,19.49
2023-05-01T16:01:06.046Z,19.40
2023-05-01T16:02:50.971Z,19.66
2023-05-01T16:04:17.369Z,19.16
2023-05-01T16:05:53.065Z,19.38
2023-05-01T16:07:27.769Z,20.07
2023-05-01T16:08:51.864Z,19.87
2023-05-01T16:10:32.556Z,19.90
2023-05-01T16:12:06.037Z,20.05
2023-05-01T16:13:39.877Z,20.31
2023-05-01T16:15:04.067Z,20.96
2023-05-01T16:16:25.520Z,21.56
2023-05-01T16:17:55.244Z,21.48
2023-05-01T16:19:19.109Z,21.50
2023-05-01T16:20:41.114Z,21.70
2023-05-01T16:22:03.059Z,21.63
2023-05-01T16:23:37.002Z,21.96
2023-05-01T16:25:06.592Z,22.14
2023-05-01T16:26:30.925Z,22.41
2023-05-01T16:28:12.442Z,22.60
2023-05-01T16:29:46.107Z,22.92
2023-05-01T16:31:27.088Z,23.35
2023-05-01T16:32:49.488Z,23.73
2023-05-01T16:34:11.572Z,24.23
2023-05-01T16:35:36.785Z,23.73
2023-05-01T16:36:58.135Z,23.89
2023-05-01T16:38:39.949Z,24.12
2023-05-01T16:40:01.954Z,24.42
2023-05-01T16:41:36.626Z,24.39
2023-05-01T16:43:02.805Z,24.96
2023-05-01T16:44:53.182Z,25.17
2023-05-01T16:46:25.047Z,25.38
2023-05-01T16:47:58.726Z,25.43
2023-05-01T16:49:22.492Z,25.80
2023-05-01T16:50:44.543Z,25.98
2023-05-01T16:52:10.530Z,26.03
2023-05-01T16:53:32.489Z,26.41
2023-05-01T16:55:02.081Z,26.47
2023-05-01T16:56:24.049Z,26.41
2023-05-01T16:57:46.099Z,27.18
2023-05-01T16:59:07.692Z,27.94
2023-05-01T17:00:29.352Z,27.82
2023-05-01T17:01:53.537Z,28.15
2023-05-01T17:03:16.112Z,28.25
2023-05-01T17:04:37.757Z,28.48
2023-05-01T17:06:03.748Z,29.44
2023-05-01T17:07:37.117Z,29.74
2023-05-01T17:09:03.393Z,30.54
2023-05-01T17:10:38.860Z,30.84
2023-05-01T17:12:07.985Z,31.07
2023-05-01T17:13:43.923Z,31.62
2023-05-01T17:15:19.509Z,33.66
2023-05-01T17:16:53.408Z,33.60
2023-05-01T17:18:26.710Z,33.06
2023-05-01T17:20:00.697Z,33.67
2023-05-01T17:21:24.633Z,34.07
2023-05-01T17:22:48.714Z,34.27
2023-05-01T17:24:12.901Z,35.02
2023-05-01T17:25:44.675Z,34.90
2023-05-01T17:27:08.724Z,34.31
2023-05-01T17:28:30.322Z,34.73
2023-05-01T17:29:52.481Z,35.33
2023-05-01T17:31:25.871Z,35.59
2023-05-01T17:32:48.415Z,35.09
2023-05-01T17:34:21.694Z,35.12
2023-05-01T17:35:50.972Z,35.85
2023-05-01T17:37:15.363Z,35.56
2023-05-01T17:38:37.509Z,35.50
2023-05-01T17:40:03.934Z,35.86
2023-05-01T17:41:47.190Z,36.16
2023-05-01T17:43:11.034Z,36.35
2023-05-01T17:44:33.619Z,36.29
2023-05-01T17:45:57.865Z,36.88
2023-05-01T17:47:19.862Z,36.89
2023-05-01T17:48:42.156Z,35.82
2023-05-01T17:50:09.498Z,36.40
2023-05-01T17:51:54.548Z,36.75
2023-05-01T17:53:16.437Z,36.94
2023-05-01T17:54:58.351Z,37.05
2023-05-01T17:56:22.561Z,37.09
2023-05-01T17:57:49.370Z,37.22
2023-05-01T17:59:13.670Z,37.82
2023-05-01T18:00:59.113Z,38.14
2023-05-01T18:02:32.553Z,38.18
2023-05-01T18:03:56.970Z,38.04
2023-05-01T18:05:18.774Z,38.50
2023-05-01T18:06:43.382Z,38.06
2023-05-01T18:08:12.973Z,38.55
2023-05-01T18:09:35.383Z,38.78
2023-05-01T18:10:57.339Z,38.79
2023-05-01T18:12:32.964Z,39.43
2023-05-01T18:13:55.112Z,38.73
2023-05-01T18:15:28.388Z,38.88
2023-05-01T18:17:01.912Z,38.99
2023-05-01T18:18:23.690Z,38.99
2023-05-01T18:19:45.668Z,38.76
2023-05-01T18:21:07.183Z,38.57
2023-05-01T18:22:29.153Z,39.16
2023-05-01T18:23:51.537Z,39.27
2023-05-01T18:25:20.762Z,38.82
2023-05-01T18:26:42.352Z,38.84
2023-05-01T18:28:18.226Z,39.20
2023-05-01T18:29:40.304Z,38.97
2023-05-01T18:31:01.818Z,38.80
2023-05-01T18:32:32.994Z,39.45
2023-05-01T18:34:20.675Z,39.24
2023-05-01T18:35:42.516Z,39.24
2023-05-01T18:37:15.731Z,39.93
2023-05-01T18:38:37.275Z,40.42
2023-05-01T18:39:59.200Z,39.91
2023-05-01T18:41:23.666Z,40.48
2023-05-01T18:42:45.723Z,40.50
2023-05-01T18:44:07.548Z,40.38
2023-05-01T18:45:31.757Z,40.34
2023-05-01T18:47:01.234Z,40.54
2023-05-01T18:48:32.801Z,40.70
2023-05-01T18:49:58.151Z,40.95
2023-05-01T18:51:22.241Z,40.98
2023-05-01T18:52:55.647Z,40.90
2023-05-01T18:54:17.695Z,40.66
2023-05-01T18:55:42.080Z,40.68
2023-05-01T18:57:04.089Z,40.83
2023-05-01T18:58:30.096Z,41.37